| time (UTC) | temp F | wind direction | speed MPH | gust MPH | rain 1hr in | rain 24hr in | rain mn in | humidity % | barometer mb |
| 20260504050514 | 55 | 203 | 2.0 | 2.0 | 0.00 | 0.00 | 0.00 | 49 | 1006.9 |
| 20260504050012 | 55 | 205 | 1.0 | 2.0 | 0.00 | 0.00 | 0.00 | 48 | 1007.0 |
| 20260504045508 | 55 | 209 | 1.0 | 1.0 | 0.00 | 0.00 | 0.00 | 48 | 1007.0 |
| 20260504045003 | 55 | 210 | 1.0 | 1.0 | 0.00 | 0.00 | 0.00 | 47 | 1007.3 |
| 20260504044501 | 55 | 207 | 2.0 | 2.0 | 0.00 | 0.00 | 0.00 | 47 | 1007.1 |
| 20260504043958 | 56 | 204 | 1.0 | 1.0 | 0.00 | 0.00 | 0.00 | 47 | 1007.1 |
| 20260504043455 | 56 | 209 | 0.0 | 1.0 | 0.00 | 0.00 | 0.00 | 47 | 1007.2 |
| 20260504042952 | 56 | 214 | 0.0 | 1.0 | 0.00 | 0.00 | 0.00 | 47 | 1007.2 |
| 20260504042449 | 56 | 207 | 1.0 | 1.0 | 0.00 | 0.00 | 0.00 | 47 | 1007.3 |
| 20260504041946 | 57 | 194 | 2.0 | 2.0 | 0.00 | 0.00 | 0.00 | 46 | 1007.2 |
| 20260504041442 | 57 | 209 | 2.0 | 2.0 | 0.00 | 0.00 | 0.00 | 45 | 1007.4 |
| 20260504040937 | 57 | 214 | 1.0 | 1.0 | 0.00 | 0.00 | 0.00 | 45 | 1007.5 |
| 20260504040436 | 57 | 213 | 1.0 | 1.0 | 0.00 | 0.00 | 0.00 | 44 | 1007.5 |
| 20260504035931 | 57 | 214 | 1.0 | 1.0 | 0.00 | 0.00 | 0.00 | 44 | 1007.3 |
| 20260504035429 | 57 | 214 | 1.0 | 1.0 | 0.00 | 0.00 | 0.00 | 44 | 1007.6 |
| 20260504034926 | 57 | 214 | 1.0 | 1.0 | 0.00 | 0.00 | 0.00 | 44 | 1007.6 |
| 20260504034423 | 57 | 213 | 1.0 | 1.0 | 0.00 | 0.00 | 0.00 | 44 | 1007.8 |
| 20260504033920 | 57 | 209 | 1.0 | 1.0 | 0.00 | 0.00 | 0.00 | 44 | 1007.7 |
| 20260504033418 | 58 | 207 | 1.0 | 1.0 | 0.00 | 0.00 | 0.00 | 44 | 1007.9 |
| 20260504032915 | 58 | 203 | 2.0 | 2.0 | 0.00 | 0.00 | 0.00 | 43 | 1007.9 |
| 20260504032411 | 58 | 205 | 1.0 | 1.0 | 0.00 | 0.00 | 0.00 | 43 | 1008.0 |
| 20260504031908 | 59 | 207 | 0.0 | 0.0 | 0.00 | 0.00 | 0.00 | 44 | 1007.9 |
| 20260504031405 | 59 | 206 | 0.0 | 1.0 | 0.00 | 0.00 | 0.00 | 43 | 1008.4 |
| 20260504030902 | 59 | 219 | 0.0 | 0.0 | 0.00 | 0.00 | 0.00 | 44 | 1008.1 |
| 20260504030359 | 59 | 233 | 0.0 | 0.0 | 0.00 | 0.00 | 0.00 | 43 | 1008.1 |
| 20260504025855 | 60 | 233 | 0.0 | 0.0 | 0.00 | 0.00 | 0.00 | 42 | 1008.3 |
| 20260504025352 | 60 | 233 | 0.0 | 1.0 | 0.00 | 0.00 | 0.00 | 41 | 1008.0 |
| 20260504024849 | 61 | 233 | 0.0 | 0.0 | 0.00 | 0.00 | 0.00 | 40 | 1008.3 |
| 20260504024345 | 62 | 229 | 0.0 | 1.0 | 0.00 | 0.00 | 0.00 | 39 | 1008.0 |
| 20260504023842 | 62 | 235 | 1.0 | 1.0 | 0.00 | 0.00 | 0.00 | 39 | 1008.5 |
| 20260504023339 | 61 | 225 | 1.0 | 1.0 | 0.00 | 0.00 | 0.00 | 40 | 1007.9 |
| 20260504022834 | 62 | 229 | 1.0 | 1.0 | 0.00 | 0.00 | 0.00 | 39 | 1008.3 |
| 20260504022332 | 62 | 244 | 0.0 | 0.0 | 0.00 | 0.00 | 0.00 | 38 | 1008.1 |
| 20260504021828 | 63 | 255 | 1.0 | 2.0 | 0.00 | 0.00 | 0.00 | 36 | 1007.8 |
| 20260504021326 | 63 | 230 | 3.0 | 3.0 | 0.00 | 0.00 | 0.00 | 36 | 1008.1 |
| 20260504020823 | 64 | 244 | 1.0 | 2.0 | 0.00 | 0.00 | 0.00 | 36 | 1008.1 |
| 20260504020319 | 64 | 247 | 0.0 | 0.0 | 0.00 | 0.00 | 0.00 | 35 | 1008.0 |
| 20260504015815 | 64 | 246 | 0.0 | 1.0 | 0.00 | 0.00 | 0.00 | 35 | 1008.1 |
| 20260504015311 | 64 | 243 | 1.0 | 1.0 | 0.00 | 0.00 | 0.00 | 35 | 1008.1 |
| 20260504014808 | 64 | 244 | 1.0 | 1.0 | 0.00 | 0.00 | 0.00 | 35 | 1008.0 |
| 20260504014304 | 64 | 243 | 0.0 | 0.0 | 0.00 | 0.00 | 0.00 | 35 | 1008.0 |
| 20260504013802 | 65 | 249 | 0.0 | 0.0 | 0.00 | 0.00 | 0.00 | 35 | 1008.3 |
| 20260504013259 | 65 | 242 | 0.0 | 0.0 | 0.00 | 0.00 | 0.00 | 34 | 1008.0 |
| 20260504012755 | 66 | 243 | 1.0 | 1.0 | 0.00 | 0.00 | 0.00 | 34 | 1007.9 |
| 20260504012254 | 66 | 260 | 0.0 | 0.0 | 0.00 | 0.00 | 0.00 | 33 | 1007.8 |
| 20260504011750 | 66 | 265 | 0.0 | 0.0 | 0.00 | 0.00 | 0.00 | 33 | 1007.8 |
| 20260504011247 | 67 | 279 | 1.0 | 1.0 | 0.00 | 0.00 | 0.00 | 33 | 1008.0 |
| 20260504010743 | 67 | 260 | 0.0 | 1.0 | 0.00 | 0.00 | 0.00 | 33 | 1007.8 |
| 20260504010238 | 67 | 292 | 1.0 | 1.0 | 0.00 | 0.00 | 0.00 | 33 | 1007.7 |
| 20260504005736 | 68 | 269 | 0.0 | 1.0 | 0.00 | 0.00 | 0.00 | 32 | 1007.5 |
| 20260504005233 | 68 | 256 | 0.0 | 0.0 | 0.00 | 0.00 | 0.00 | 32 | 1007.5 |
| 20260504004730 | 69 | 286 | 1.0 | 2.0 | 0.00 | 0.00 | 0.00 | 31 | 1007.7 |
| 20260504004227 | 69 | 254 | 2.0 | 2.0 | 0.00 | 0.00 | 0.00 | 30 | 1007.5 |
| 20260504003724 | 69 | 264 | 1.0 | 1.0 | 0.00 | 0.00 | 0.00 | 30 | 1007.7 |
| 20260504003221 | 70 | 1 | 1.0 | 1.0 | 0.00 | 0.00 | 0.00 | 29 | 1007.7 |
| 20260504002717 | 70 | 328 | 4.0 | 5.0 | 0.00 | 0.00 | 0.00 | 28 | 1007.7 |
| 20260504002214 | 70 | 260 | 1.0 | 1.0 | 0.00 | 0.00 | 0.00 | 29 | 1007.7 |
| 20260504001712 | 70 | 269 | 3.0 | 3.0 | 0.00 | 0.00 | 0.00 | 28 | 1007.8 |
| 20260504001209 | 70 | 285 | 3.0 | 3.0 | 0.00 | 0.00 | 0.00 | 29 | 1007.7 |
| 20260504000706 | 71 | 287 | 3.0 | 3.0 | 0.00 | 0.00 | 0.00 | 28 | 1007.8 |
| 20260504000204 | 71 | 294 | 2.0 | 2.0 | 0.00 | 0.00 | 0.00 | 29 | 1007.6 |
| 20260503235701 | 71 | 332 | 3.0 | 3.0 | 0.00 | 0.00 | 0.00 | 30 | 1007.6 |
| 20260503235157 | 71 | 312 | 2.0 | 2.0 | 0.00 | 0.00 | 0.00 | 28 | 1007.6 |
| 20260503234655 | 72 | 280 | 2.0 | 2.0 | 0.00 | 0.00 | 0.00 | 29 | 1007.6 |
| 20260503234154 | 72 | 216 | 1.0 | 2.0 | 0.00 | 0.00 | 0.00 | 28 | 1007.4 |
| 20260503233650 | 72 | 318 | 2.0 | 3.0 | 0.00 | 0.00 | 0.00 | 27 | 1007.7 |
| 20260503233146 | 72 | 326 | 3.0 | 3.0 | 0.00 | 0.00 | 0.00 | 29 | 1007.7 |
| 20260503232643 | 72 | 316 | 2.0 | 2.0 | 0.00 | 0.00 | 0.00 | 28 | 1007.6 |
| 20260503232140 | 72 | 333 | 4.0 | 6.0 | 0.00 | 0.00 | 0.00 | 28 | 1007.7 |
| 20260503231638 | 72 | 342 | 2.0 | 5.0 | 0.00 | 0.00 | 0.00 | 27 | 1007.8 |
| 20260503231134 | 72 | 327 | 6.0 | 7.0 | 0.00 | 0.00 | 0.00 | 28 | 1007.6 |
| 20260503230631 | 73 | 348 | 4.0 | 6.0 | 0.00 | 0.00 | 0.00 | 27 | 1007.6 |
| 20260503230128 | 73 | 278 | 3.0 | 3.0 | 0.00 | 0.00 | 0.00 | 30 | 1007.6 |
| 20260503225626 | 73 | 272 | 2.0 | 2.0 | 0.00 | 0.00 | 0.00 | 30 | 1007.8 |
| 20260503225125 | 73 | 320 | 4.0 | 5.0 | 0.00 | 0.00 | 0.00 | 29 | 1007.7 |
| 20260503224623 | 73 | 315 | 4.0 | 5.0 | 0.00 | 0.00 | 0.00 | 29 | 1007.7 |
| 20260503224121 | 72 | 246 | 1.0 | 2.0 | 0.00 | 0.00 | 0.00 | 31 | 1007.7 |
| 20260503223619 | 72 | 343 | 3.0 | 3.0 | 0.00 | 0.00 | 0.00 | 30 | 1007.5 |
| 20260503223114 | 72 | 348 | 5.0 | 6.0 | 0.00 | 0.00 | 0.00 | 29 | 1007.8 |
| 20260503222612 | 73 | 267 | 2.0 | 2.0 | 0.00 | 0.00 | 0.00 | 30 | 1007.5 |
| 20260503222109 | 73 | 314 | 2.0 | 3.0 | 0.00 | 0.00 | 0.00 | 29 | 1007.5 |
| 20260503221608 | 73 | 326 | 7.0 | 8.0 | 0.00 | 0.00 | 0.00 | 30 | 1007.6 |
| 20260503221105 | 74 | 271 | 1.0 | 2.0 | 0.00 | 0.00 | 0.00 | 28 | 1007.5 |
| 20260503220601 | 74 | 260 | 6.0 | 9.0 | 0.00 | 0.00 | 0.00 | 27 | 1007.6 |
| 20260503220058 | 73 | 344 | 4.0 | 6.0 | 0.00 | 0.00 | 0.00 | 27 | 1007.8 |
| 20260503215555 | 73 | 300 | 4.0 | 5.0 | 0.00 | 0.00 | 0.00 | 28 | 1007.6 |
| 20260503215052 | 73 | 10 | 3.0 | 5.0 | 0.00 | 0.00 | 0.00 | 29 | 1007.7 |
| 20260503214550 | 73 | 316 | 3.0 | 3.0 | 0.00 | 0.00 | 0.00 | 28 | 1007.7 |
| 20260503214046 | 74 | 276 | 5.0 | 6.0 | 0.00 | 0.00 | 0.00 | 26 | 1007.7 |
| 20260503213545 | 73 | 318 | 4.0 | 5.0 | 0.00 | 0.00 | 0.00 | 28 | 1007.7 |
| 20260503213041 | 73 | 344 | 6.0 | 9.0 | 0.00 | 0.00 | 0.00 | 28 | 1007.5 |
| 20260503212539 | 73 | 320 | 3.0 | 5.0 | 0.00 | 0.00 | 0.00 | 27 | 1007.6 |
| 20260503212036 | 73 | 343 | 6.0 | 8.0 | 0.00 | 0.00 | 0.00 | 26 | 1007.6 |
| 20260503211533 | 73 | 315 | 6.0 | 7.0 | 0.00 | 0.00 | 0.00 | 27 | 1007.7 |
| 20260503211028 | 73 | 346 | 6.0 | 8.0 | 0.00 | 0.00 | 0.00 | 27 | 1007.8 |
| 20260503210526 | 73 | 349 | 4.0 | 6.0 | 0.00 | 0.00 | 0.00 | 27 | 1007.7 |
| 20260503210021 | 73 | 311 | 7.0 | 11.0 | 0.00 | 0.00 | 0.00 | 27 | 1007.8 |
| 20260503205518 | 73 | 269 | 3.0 | 5.0 | 0.00 | 0.00 | 0.00 | 26 | 1007.5 |
| 20260503205015 | 73 | 289 | 2.0 | 2.0 | 0.00 | 0.00 | 0.00 | 27 | 1007.9 |
| 20260503204512 | 73 | 335 | 5.0 | 6.0 | 0.00 | 0.00 | 0.00 | 28 | 1007.8 |
| 20260503204008 | 73 | 16 | 5.0 | 6.0 | 0.00 | 0.00 | 0.00 | 30 | 1008.0 |
| 20260503203506 | 73 | 358 | 5.0 | 6.0 | 0.00 | 0.00 | 0.00 | 30 | 1008.0 |
| 20260503203003 | 73 | 270 | 6.0 | 9.0 | 0.00 | 0.00 | 0.00 | 29 | 1007.5 |
| 20260503202500 | 73 | 302 | 3.0 | 5.0 | 0.00 | 0.00 | 0.00 | 28 | 1008.3 |
| 20260503201959 | 72 | 356 | 5.0 | 6.0 | 0.00 | 0.00 | 0.00 | 29 | 1008.0 |
| 20260503201456 | 72 | 318 | 4.0 | 6.0 | 0.00 | 0.00 | 0.00 | 29 | 1007.9 |
| 20260503200953 | 73 | 339 | 9.0 | 10.0 | 0.00 | 0.00 | 0.00 | 27 | 1007.9 |
| 20260503200449 | 73 | 302 | 6.0 | 8.0 | 0.00 | 0.00 | 0.00 | 31 | 1008.1 |
| 20260503195946 | 73 | 308 | 6.0 | 7.0 | 0.00 | 0.00 | 0.00 | 31 | 1007.9 |
| 20260503195444 | 72 | 353 | 10.0 | 13.0 | 0.00 | 0.00 | 0.00 | 32 | 1007.9 |
| 20260503194940 | 72 | 323 | 6.0 | 7.0 | 0.00 | 0.00 | 0.00 | 33 | 1008.1 |
| 20260503194437 | 72 | 287 | 4.0 | 5.0 | 0.00 | 0.00 | 0.00 | 33 | 1008.4 |
| 20260503193932 | 72 | 329 | 6.0 | 7.0 | 0.00 | 0.00 | 0.00 | 33 | 1008.1 |
| 20260503193428 | 71 | 7 | 8.0 | 11.0 | 0.00 | 0.00 | 0.00 | 33 | 1008.0 |
| 20260503192923 | 71 | 333 | 5.0 | 6.0 | 0.00 | 0.00 | 0.00 | 32 | 1008.1 |
| 20260503192421 | 71 | 320 | 6.0 | 8.0 | 0.00 | 0.00 | 0.00 | 33 | 1008.4 |
| 20260503191916 | 71 | 348 | 6.0 | 7.0 | 0.00 | 0.00 | 0.00 | 32 | 1008.0 |
| 20260503191414 | 71 | 35 | 8.0 | 10.0 | 0.00 | 0.00 | 0.00 | 33 | 1008.1 |
| 20260503190910 | 71 | 301 | 6.0 | 9.0 | 0.00 | 0.00 | 0.00 | 35 | 1008.0 |
| 20260503190408 | 71 | 328 | 6.0 | 6.0 | 0.00 | 0.00 | 0.00 | 34 | 1008.5 |
| 20260503185904 | 71 | 298 | 3.0 | 6.0 | 0.00 | 0.00 | 0.00 | 35 | 1008.3 |
| 20260503185401 | 71 | 335 | 11.0 | 14.0 | 0.00 | 0.00 | 0.00 | 33 | 1008.1 |
| 20260503184900 | 72 | 314 | 4.0 | 6.0 | 0.00 | 0.00 | 0.00 | 34 | 1008.4 |
| 20260503184356 | 70 | 329 | 6.0 | 7.0 | 0.00 | 0.00 | 0.00 | 36 | 1008.3 |
| 20260503183853 | 70 | 352 | 10.0 | 11.0 | 0.00 | 0.00 | 0.00 | 34 | 1008.4 |
| 20260503183350 | 71 | 357 | 6.0 | 9.0 | 0.00 | 0.00 | 0.00 | 37 | 1008.1 |
| 20260503182847 | 71 | 334 | 4.0 | 6.0 | 0.00 | 0.00 | 0.00 | 36 | 1008.1 |
| 20260503182346 | 70 | 314 | 5.0 | 5.0 | 0.00 | 0.00 | 0.00 | 37 | 1008.3 |
| 20260503181842 | 70 | 333 | 5.0 | 7.0 | 0.00 | 0.00 | 0.00 | 38 | 1008.1 |
| 20260503181340 | 71 | 303 | 10.0 | 14.0 | 0.00 | 0.00 | 0.00 | 36 | 1008.1 |
| 20260503180836 | 71 | 301 | 5.0 | 7.0 | 0.00 | 0.00 | 0.00 | 39 | 1008.0 |
| 20260503180334 | 70 | 293 | 8.0 | 10.0 | 0.00 | 0.00 | 0.00 | 38 | 1008.6 |
| 20260503175830 | 70 | 311 | 6.0 | 8.0 | 0.00 | 0.00 | 0.00 | 37 | 1008.4 |
| 20260503175328 | 70 | 311 | 4.0 | 6.0 | 0.00 | 0.00 | 0.00 | 39 | 1008.6 |
| 20260503174823 | 71 | 312 | 8.0 | 11.0 | 0.00 | 0.00 | 0.00 | 38 | 1008.3 |
| 20260503174322 | 70 | 11 | 4.0 | 5.0 | 0.00 | 0.00 | 0.00 | 39 | 1008.4 |
| 20260503173817 | 69 | 53 | 7.0 | 8.0 | 0.00 | 0.00 | 0.00 | 38 | 1008.5 |
| 20260503173314 | 70 | 302 | 6.0 | 7.0 | 0.00 | 0.00 | 0.00 | 39 | 1008.6 |
| 20260503172810 | 69 | 294 | 4.0 | 6.0 | 0.00 | 0.00 | 0.00 | 39 | 1008.3 |
| 20260503172308 | 70 | 0 | 4.0 | 6.0 | 0.00 | 0.00 | 0.00 | 39 | 1008.4 |
| 20260503171804 | 70 | 192 | 3.0 | 3.0 | 0.00 | 0.00 | 0.00 | 40 | 1008.4 |
| 20260503171301 | 70 | 278 | 4.0 | 5.0 | 0.00 | 0.00 | 0.00 | 39 | 1008.4 |
| 20260503170758 | 69 | 339 | 7.0 | 8.0 | 0.00 | 0.00 | 0.00 | 38 | 1008.3 |
| 20260503170255 | 69 | 291 | 3.0 | 3.0 | 0.00 | 0.00 | 0.00 | 40 | 1008.5 |
| 20260503160217 | 66 | 319 | 2.0 | 2.0 | 0.00 | 0.00 | 0.00 | 43 | 1008.5 |
| 20260503150647 | 62 | 226 | 9.0 | 11.0 | 0.00 | 0.00 | 0.00 | 47 | 1008.9 |
| 20260503150143 | 61 | 281 | 3.0 | 3.0 | 0.00 | 0.00 | 0.00 | 47 | 1008.8 |
| 20260503140108 | 56 | 212 | 5.0 | 6.0 | 0.00 | 0.00 | 0.00 | 54 | 1009.3 |
| 20260503131037 | 53 | 198 | 6.0 | 6.0 | 0.00 | 0.00 | 0.00 | 55 | 1009.7 |
| 20260503130534 | 53 | 206 | 6.0 | 8.0 | 0.00 | 0.00 | 0.00 | 56 | 1009.8 |
| 20260503110425 | 51 | 175 | 3.0 | 5.0 | 0.00 | 0.00 | 0.00 | 57 | 1010.2 |
| 20260503090315 | 52 | 166 | 5.0 | 5.0 | 0.00 | 0.00 | 0.00 | 51 | 1011.9 |
| 20260503081243 | 52 | 175 | 5.0 | 6.0 | 0.00 | 0.00 | 0.00 | 50 | 1013.7 |
| 20260503080738 | 53 | 177 | 3.0 | 5.0 | 0.00 | 0.00 | 0.00 | 51 | 1013.4 |
| 20260503080236 | 53 | 184 | 5.0 | 7.0 | 0.00 | 0.00 | 0.00 | 50 | 1013.6 |
| 20260503072712 | 53 | 181 | 5.0 | 7.0 | 0.00 | 0.00 | 0.00 | 51 | 1013.4 |
| 20260503072209 | 53 | 182 | 7.0 | 8.0 | 0.00 | 0.00 | 0.00 | 50 | 1013.4 |
| 20260503071706 | 53 | 196 | 9.0 | 11.0 | 0.00 | 0.00 | 0.00 | 50 | 1013.3 |
| 20260503071203 | 52 | 195 | 7.0 | 8.0 | 0.00 | 0.00 | 0.00 | 50 | 1013.4 |
| 20260503070659 | 53 | 204 | 9.0 | 11.0 | 0.00 | 0.00 | 0.00 | 49 | 1013.7 |
| 20260503070158 | 53 | 210 | 7.0 | 8.0 | 0.00 | 0.00 | 0.00 | 49 | 1013.5 |
| 20260503060122 | 53 | 218 | 7.0 | 8.0 | 0.00 | 0.00 | 0.00 | 49 | 1014.0 |
| 20260503055114 | 53 | 204 | 10.0 | 15.0 | 0.00 | 0.00 | 0.00 | 48 | 1013.9 |
| 20260503054609 | 53 | 204 | 7.0 | 7.0 | 0.00 | 0.00 | 0.00 | 48 | 1014.0 |
| 20260503054106 | 53 | 199 | 6.0 | 7.0 | 0.00 | 0.00 | 0.00 | 48 | 1014.1 |
| 20260503053604 | 53 | 205 | 6.0 | 7.0 | 0.00 | 0.00 | 0.00 | 48 | 1014.2 |
| 20260503053102 | 53 | 211 | 5.0 | 7.0 | 0.00 | 0.00 | 0.00 | 49 | 1014.4 |
| 20260503052558 | 53 | 189 | 6.0 | 7.0 | 0.00 | 0.00 | 0.00 | 48 | 1014.1 |
| 20260503052055 | 53 | 216 | 8.0 | 9.0 | 0.00 | 0.00 | 0.00 | 48 | 1014.1 |